Time;durP1;ratioP1;P1;durP2;ratioP2;P2;SDS_P1;SDS_P2;PMS_P1;PMS_P2;Temp;Humidity;BMP_temperature;BMP_pressure;BME280_temperature;BME280_humidity;BME280_pressure;Samples;Min_cycle;Max_cycle;Signal;HPM_P1;HPM_P2
2022/06/20 00:00:13;;;;;;;7.90;1.70;;;;;;;12.49;97.36;99392.52;105423;1271;60467;-70
2022/06/20 00:03:05;;;;;;;7.30;1.50;;;;;;;12.50;97.31;99406.15;105163;1268;61076;-69
2022/06/20 00:05:53;;;;;;;5.60;1.70;;;;;;;12.48;97.11;99415.16;105203;1268;75949;-69
2022/06/20 00:08:40;;;;;;;6.00;1.40;;;;;;;12.45;96.97;99418.10;105391;1267;69006;-69
2022/06/20 00:11:36;;;;;;;5.90;1.50;;;;;;;12.45;97.50;99423.13;105154;1268;73510;-66
2022/06/20 00:14:22;;;;;;;7.60;1.70;;;;;;;12.44;97.54;99428.22;105059;1268;60437;-68
2022/06/20 00:17:12;;;;;;;6.60;1.70;;;;;;;12.40;97.35;99429.97;105425;1268;60347;-70
2022/06/20 00:19:59;;;;;;;7.10;1.60;;;;;;;12.35;97.31;99424.43;105044;1269;74815;-68
2022/06/20 00:22:49;;;;;;;7.10;1.40;;;;;;;12.30;97.47;99418.67;105038;1271;69387;-67
2022/06/20 00:25:38;;;;;;;6.60;1.60;;;;;;;12.29;97.66;99411.89;105183;1268;74261;-70
2022/06/20 00:28:25;;;;;;;5.90;1.50;;;;;;;12.27;97.91;99418.45;105171;1270;60569;-70
2022/06/20 00:31:13;;;;;;;6.00;1.50;;;;;;;12.24;97.91;99413.72;105585;1268;61158;-71
2022/06/20 00:34:00;;;;;;;5.70;1.70;;;;;;;12.24;98.40;99415.13;105088;1269;72757;-72
2022/06/20 00:36:48;;;;;;;6.50;1.60;;;;;;;12.26;98.61;99412.79;105177;1268;68334;-70
2022/06/20 00:39:35;;;;;;;5.80;1.50;;;;;;;12.28;98.31;99414.08;105134;1268;74800;-71
2022/06/20 00:42:22;;;;;;;7.60;1.40;;;;;;;12.28;98.16;99412.86;105288;1268;60553;-71
2022/06/20 00:45:12;;;;;;;5.90;1.50;;;;;;;12.25;98.00;99418.40;105395;1267;60443;-70
2022/06/20 00:48:09;;;;;;;6.00;1.50;;;;;;;12.20;97.74;99414.23;105130;1271;76649;-71
2022/06/20 00:51:16;;;;;;;6.60;1.70;;;;;;;12.19;97.63;99414.94;105295;1268;67220;-67
2022/06/20 00:54:26;;;;;;;5.60;1.30;;;;;;;12.17;97.97;99413.86;105304;1267;72567;-70
2022/06/20 00:57:29;;;;;;;5.20;1.40;;;;;;;12.17;98.37;99411.02;105137;1268;60565;-71
2022/06/20 01:00:27;;;;;;;6.50;1.80;;;;;;;12.17;98.34;99411.58;105416;1268;61031;-69
2022/06/20 01:03:21;;;;;;;6.90;2.10;;;;;;;12.17;98.59;99416.49;105455;1267;76021;-73
2022/06/20 01:06:20;;;;;;;7.60;2.00;;;;;;;12.15;98.18;99423.82;104928;1270;69567;-69
2022/06/20 01:09:10;;;;;;;5.90;1.70;;;;;;;12.17;98.75;99424.89;105196;1268;73573;-73
2022/06/20 01:12:03;;;;;;;6.40;1.80;;;;;;;12.19;98.83;99421.32;105299;1268;60445;-69
2022/06/20 01:14:50;;;;;;;7.30;1.80;;;;;;;12.19;98.78;99421.10;105120;1268;60405;-71
2022/06/20 01:17:41;;;;;;;7.90;2.20;;;;;;;12.20;98.76;99418.39;105216;1268;75637;-70
2022/06/20 01:20:33;;;;;;;8.80;2.40;;;;;;;12.21;99.00;99426.81;105161;1268;68306;-68
2022/06/20 01:23:35;;;;;;;5.50;2.00;;;;;;;12.22;98.61;99416.42;105516;1268;72663;-69
2022/06/20 01:26:47;;;;;;;5.80;1.80;;;;;;;12.20;98.49;99414.64;105213;1268;60475;-69
2022/06/20 01:29:34;;;;;;;6.80;2.30;;;;;;;12.19;98.91;99420.55;105200;1268;61131;-67
2022/06/20 01:32:21;;;;;;;7.10;1.90;;;;;;;12.17;98.69;99417.08;105274;1268;75362;-66
2022/06/20 01:37:23;;;;;;;6.50;1.90;;;;;;;12.13;98.82;99411.04;105097;1268;69338;-66
2022/06/20 01:38:20;;;;;;;10.00;2.30;;;;;;;12.11;99.16;99409.94;105432;1268;74480;-69
2022/06/20 01:44:14;;;;;;;6.70;2.20;;;;;;;12.11;99.17;99407.46;105140;1268;62452;-69
2022/06/20 01:47:01;;;;;;;8.10;2.20;;;;;;;12.14;99.76;99412.23;105181;1266;73509;-70
2022/06/20 01:50:02;;;;;;;8.00;2.50;;;;;;;12.16;99.68;99407.03;105134;1268;69626;-69
2022/06/20 01:52:49;;;;;;;6.40;2.30;;;;;;;12.18;99.41;99412.73;105125;1268;74745;-69
2022/06/20 01:55:37;;;;;;;6.70;2.10;;;;;;;12.21;99.67;99411.17;105206;1268;60507;-71
2022/06/20 01:58:31;;;;;;;5.50;1.70;;;;;;;12.22;99.29;99412.26;105170;1268;61193;-69
2022/06/20 02:01:18;;;;;;;5.70;1.90;;;;;;;12.21;98.78;99403.34;105097;1268;74493;-68
2022/06/20 02:04:15;;;;;;;7.20;2.00;;;;;;;12.21;98.68;99397.85;105062;1268;67937;-68
2022/06/20 02:07:07;;;;;;;6.70;1.90;;;;;;;12.20;98.41;99395.78;105347;1268;74367;-68
2022/06/20 02:09:54;;;;;;;5.50;1.80;;;;;;;12.17;98.09;99402.30;105348;1268;60810;-68
2022/06/20 02:12:42;;;;;;;6.50;1.80;;;;;;;12.15;98.68;99388.98;105121;1268;60877;-67
2022/06/20 02:15:31;;;;;;;6.00;2.00;;;;;;;12.15;98.51;99380.08;105286;1267;75610;-70
2022/06/20 02:18:20;;;;;;;8.60;1.90;;;;;;;12.14;98.19;99377.02;105103;1268;68481;-68
2022/06/20 02:21:15;;;;;;;6.20;1.80;;;;;;;12.13;97.97;99374.95;105133;1268;72305;-69
2022/06/20 02:24:24;;;;;;;7.20;1.90;;;;;;;12.12;97.90;99393.54;105362;1268;61913;-72
2022/06/20 02:27:41;;;;;;;7.40;1.80;;;;;;;12.12;98.14;99401.75;105611;1268;60436;-69
2022/06/20 02:30:29;;;;;;;6.80;1.80;;;;;;;12.11;98.09;99398.40;105474;1268;73764;-67
2022/06/20 02:33:25;;;;;;;5.80;1.80;;;;;;;12.12;98.05;99405.42;105306;1268;69282;-69
2022/06/20 02:36:14;;;;;;;6.20;1.70;;;;;;;12.14;97.92;99412.70;105283;1268;72362;-69
2022/06/20 02:39:01;;;;;;;6.50;1.60;;;;;;;12.16;98.26;99405.94;105228;1268;60488;-71
2022/06/20 02:41:57;;;;;;;6.30;1.90;;;;;;;12.20;98.13;99408.42;105174;1268;60550;-71
2022/06/20 02:44:48;;;;;;;6.10;2.00;;;;;;;12.22;97.91;99399.29;105111;1268;73968;-73
2022/06/20 02:47:39;;;;;;;6.20;1.80;;;;;;;12.26;98.00;99405.73;105074;1268;67441;-72
2022/06/20 02:50:32;;;;;;;7.00;1.90;;;;;;;12.29;97.60;99408.11;105240;1268;72761;-72
2022/06/20 02:53:37;;;;;;;7.30;1.60;;;;;;;12.32;97.85;99411.92;105241;1268;60513;-72
2022/06/20 02:56:30;;;;;;;5.50;2.10;;;;;;;12.34;97.55;99421.71;105538;1268;60999;-71
2022/06/20 02:59:24;;;;;;;8.00;2.00;;;;;;;12.34;97.13;99426.52;105402;1267;73856;-70
2022/06/20 03:02:15;;;;;;;5.60;1.60;;;;;;;12.34;96.88;99436.66;105261;1267;68560;-69
2022/06/20 03:05:01;;;;;;;8.10;1.90;;;;;;;12.32;96.88;99441.29;105444;1268;72903;-69
2022/06/20 03:07:49;;;;;;;6.00;1.80;;;;;;;12.33;97.13;99440.84;105121;1269;61134;-70
2022/06/20 03:10:44;;;;;;;5.80;1.60;;;;;;;12.35;96.76;99441.38;105231;1268;60484;-73
2022/06/20 03:13:34;;;;;;;6.20;1.60;;;;;;;12.33;96.73;99442.28;105287;1268;74388;-70
2022/06/20 03:16:22;;;;;;;7.30;2.10;;;;;;;12.31;96.83;99439.24;105249;1267;69433;-70
2022/06/20 03:19:27;;;;;;;5.60;1.50;;;;;;;12.30;96.48;99433.08;105341;1268;73116;-72
2022/06/20 03:22:19;;;;;;;7.00;1.70;;;;;;;12.31;96.27;99439.61;105252;1268;61199;-71
2022/06/20 03:25:12;;;;;;;6.50;1.80;;;;;;;12.29;96.35;99434.92;105235;1268;60554;-69
2022/06/20 03:27:59;;;;;;;6.70;2.00;;;;;;;12.31;96.39;99436.73;105504;1267;75366;-70
2022/06/20 03:31:06;;;;;;;5.40;1.60;;;;;;;12.34;96.22;99440.77;105561;1268;69009;-69
2022/06/20 03:33:54;;;;;;;5.70;1.50;;;;;;;12.35;95.90;99432.44;105279;1268;73383;-70
2022/06/20 03:36:43;;;;;;;8.80;1.70;;;;;;;12.41;96.13;99423.67;105185;1268;61070;-72
2022/06/20 03:39:30;;;;;;;8.00;1.60;;;;;;;12.47;95.52;99415.80;105927;1265;60548;-72
2022/06/20 03:42:17;;;;;;;6.60;1.70;;;;;;;12.49;94.92;99420.77;105932;1265;72775;-70
2022/06/20 03:45:07;;;;;;;6.10;1.50;;;;;;;12.52;95.05;99417.48;105151;1265;67433;-73
2022/06/20 03:48:22;;;;;;;6.80;1.60;;;;;;;12.54;94.57;99429.91;105647;1265;73274;-72
2022/06/20 03:51:20;;;;;;;5.00;1.50;;;;;;;12.58;94.31;99447.48;105341;1265;60460;-71
2022/06/20 03:54:30;;;;;;;5.80;1.40;;;;;;;12.64;93.59;99445.89;105154;1265;60325;-72
2022/06/20 03:57:40;;;;;;;8.30;1.40;;;;;;;12.69;92.58;99445.69;105153;1265;73249;-73
2022/06/20 04:01:07;;;;;;;6.50;1.50;;;;;;;12.74;92.11;99441.90;105501;1265;67454;-72
2022/06/20 04:04:00;;;;;;;7.40;1.50;;;;;;;12.84;91.38;99424.05;105432;1265;73452;-74
2022/06/20 04:07:53;;;;;;;7.00;1.40;;;;;;;12.93;90.60;99421.14;105105;1271;60472;-73
2022/06/20 04:10:59;;;;;;;6.80;1.70;;;;;;;13.08;89.89;99445.73;104982;1270;61295;-72
2022/06/20 04:14:13;;;;;;;5.90;1.50;;;;;;;13.09;88.99;99478.34;105096;1271;74732;-72
2022/06/20 04:20:43;;;;;;;7.70;1.80;;;;;;;13.04;88.77;99475.16;105025;1271;74457;-73
2022/06/20 04:24:02;;;;;;;8.90;1.70;;;;;;;13.07;88.90;99467.83;105256;1271;60530;-71
2022/06/20 04:26:59;;;;;;;6.20;1.40;;;;;;;13.12;88.07;99490.73;105042;1271;61764;-74
2022/06/20 04:30:12;;;;;;;8.00;1.60;;;;;;;13.11;87.76;99495.41;105278;1271;74494;-73
2022/06/20 04:33:27;;;;;;;8.20;1.60;;;;;;;13.13;87.77;99493.86;105085;1272;67694;-72
2022/06/20 04:36:40;;;;;;;7.00;1.40;;;;;;;13.17;87.34;99487.83;105035;1271;72044;-72
2022/06/20 04:39:58;;;;;;;7.50;1.50;;;;;;;13.21;87.44;99481.81;105350;1265;60747;-72
2022/06/20 04:43:47;;;;;;;8.10;1.60;;;;;;;13.29;87.25;99471.42;105318;1265;60345;-73
2022/06/20 04:46:48;;;;;;;9.20;1.80;;;;;;;13.40;86.35;99466.88;105703;1268;73902;-74
2022/06/20 04:49:37;;;;;;;9.30;1.80;;;;;;;13.54;86.06;99461.31;105366;1265;68558;-75
2022/06/20 04:52:29;;;;;;;7.00;1.60;;;;;;;13.63;85.70;99463.83;105400;1265;74205;-73
2022/06/20 04:55:24;;;;;;;7.40;1.70;;;;;;;13.58;85.16;99456.51;105223;1265;60571;-72
2022/06/20 04:58:28;;;;;;;7.50;1.80;;;;;;;13.61;84.67;99450.54;105315;1265;62057;-73
2022/06/20 05:01:18;;;;;;;10.40;1.70;;;;;;;13.72;84.09;99446.52;105317;1268;74383;-75
2022/06/20 05:04:27;;;;;;;10.10;2.00;;;;;;;13.81;83.68;99432.98;105421;1265;68302;-73
2022/06/20 05:07:36;;;;;;;8.10;1.90;;;;;;;14.01;82.23;99430.65;105334;1265;72958;-75
2022/06/20 05:10:36;;;;;;;8.50;1.50;;;;;;;14.40;80.48;99420.90;105735;1265;60426;-73
2022/06/20 05:14:09;;;;;;;7.90;1.60;;;;;;;14.77;78.91;99418.02;105507;1265;61836;-75
2022/06/20 05:16:57;;;;;;;8.30;1.80;;;;;;;14.93;77.40;99425.02;105605;1265;75365;-73
2022/06/20 05:19:48;;;;;;;8.10;1.70;;;;;;;15.03;76.79;99427.27;105588;1265;260685;-72
2022/06/20 05:22:44;;;;;;;11.30;1.90;;;;;;;15.03;76.49;99428.67;105370;1265;73303;-74
2022/06/20 05:25:35;;;;;;;9.00;2.00;;;;;;;15.06;76.13;99416.77;105308;1265;60453;-72
2022/06/20 05:28:24;;;;;;;8.00;1.70;;;;;;;15.48;74.90;99394.89;105745;1266;61931;-73
2022/06/20 05:31:22;;;;;;;8.10;1.50;;;;;;;16.66;71.84;99389.55;105832;1265;75798;-73
2022/06/20 05:34:09;;;;;;;9.90;1.60;;;;;;;17.75;67.57;99381.59;105493;1265;70438;-74
2022/06/20 05:37:05;;;;;;;6.40;1.30;;;;;;;18.56;64.52;99391.83;105294;1265;72017;-73
2022/06/20 05:40:23;;;;;;;8.00;1.50;;;;;;;18.78;62.53;99382.56;105606;1268;60478;-77
2022/06/20 05:43:22;;;;;;;8.00;1.70;;;;;;;18.66;61.74;99372.83;105455;1265;62099;-74
2022/06/20 05:46:40;;;;;;;8.60;1.80;;;;;;;18.33;61.42;99380.08;105385;1268;74796;-76
2022/06/20 05:49:34;;;;;;;10.80;1.90;;;;;;;18.07;60.59;99382.29;105557;1265;67452;-71
2022/06/20 05:52:27;;;;;;;10.80;1.90;;;;;;;17.82;61.36;99386.34;105599;1265;73388;-72
2022/06/20 05:55:27;;;;;;;7.80;1.60;;;;;;;17.53;61.75;99376.14;105239;1265;60556;-70
2022/06/20 05:58:26;;;;;;;9.90;1.60;;;;;;;17.24;62.59;99376.98;105210;1265;60335;-72
2022/06/20 06:01:30;;;;;;;10.60;1.60;;;;;;;16.99;63.39;99388.06;105353;1265;75873;-69
2022/06/20 06:04:36;;;;;;;12.00;3.50;;;;;;;16.94;64.23;99375.59;105376;1265;68631;-69
2022/06/20 06:07:34;;;;;;;25.00;14.40;;;;;;;16.98;63.44;99361.79;105191;1265;73427;-72
2022/06/20 06:10:43;;;;;;;12.60;3.00;;;;;;;16.97;63.25;99361.14;105107;1265;60462;-70
2022/06/20 06:13:54;;;;;;;9.50;2.10;;;;;;;17.01;63.86;99365.94;105175;1265;60642;-70
2022/06/20 06:16:50;;;;;;;11.40;2.10;;;;;;;17.10;63.90;99358.73;105377;1265;75556;-72
2022/06/20 06:19:42;;;;;;;8.60;1.90;;;;;;;17.26;63.49;99358.23;105409;1265;69555;-71
2022/06/20 06:22:39;;;;;;;9.80;2.00;;;;;;;17.43;61.87;99362.41;105144;1265;73249;-70
2022/06/20 06:25:32;;;;;;;9.30;2.50;;;;;;;17.62;61.15;99361.04;105654;1265;60522;-68
2022/06/20 06:28:24;;;;;;;10.70;1.80;;;;;;;17.76;60.11;99361.34;106219;1265;60443;-68
2022/06/20 06:31:23;;;;;;;9.50;1.50;;;;;;;17.93;59.87;99368.17;106162;1265;74410;-69
2022/06/20 06:34:14;;;;;;;8.80;1.40;;;;;;;18.12;59.12;99363.10;107077;1265;68419;-74
2022/06/20 06:37:10;;;;;;;7.20;1.60;;;;;;;18.39;58.98;99362.13;105779;1265;72023;-73
2022/06/20 06:40:01;;;;;;;10.60;1.60;;;;;;;18.59;58.41;99357.58;105479;1265;60459;-73
2022/06/20 06:42:47;;;;;;;9.30;1.70;;;;;;;18.95;57.89;99354.07;105408;1265;60371;-75
2022/06/20 06:45:35;;;;;;;10.80;1.90;;;;;;;19.00;56.65;99357.04;105406;1265;74502;-71
2022/06/20 06:48:46;;;;;;;9.60;1.80;;;;;;;18.82;56.68;99360.26;105281;1264;69659;-73
2022/06/20 06:51:46;;;;;;;11.40;2.10;;;;;;;18.66;56.77;99357.33;105535;1267;73512;-72
2022/06/20 06:54:42;;;;;;;10.50;2.00;;;;;;;18.69;56.59;99349.65;105468;1265;60524;-70
2022/06/20 06:58:09;;;;;;;9.40;1.80;;;;;;;18.80;55.35;99349.56;105315;1268;60519;-71
2022/06/20 07:01:11;;;;;;;12.10;4.70;;;;;;;18.82;56.03;99356.35;105632;1267;74004;-74
2022/06/20 07:04:22;;;;;;;7.90;1.70;;;;;;;18.97;56.03;99354.64;105142;1265;68029;-71
2022/06/20 07:07:39;;;;;;;10.90;1.60;;;;;;;19.19;56.06;99350.50;105467;1265;73290;-70
2022/06/20 07:11:01;;;;;;;7.70;1.50;;;;;;;19.36;55.20;99357.51;105125;1265;60437;-73
2022/06/20 07:14:09;;;;;;;9.10;2.10;;;;;;;19.33;54.87;99359.77;105347;1265;60575;-72
2022/06/20 07:17:20;;;;;;;8.40;1.90;;;;;;;19.36;54.83;99353.23;105795;1265;75668;-72
2022/06/20 07:20:11;;;;;;;7.70;1.50;;;;;;;19.55;53.92;99348.20;105390;1265;66924;-72
2022/06/20 07:23:01;;;;;;;9.00;2.10;;;;;;;19.60;51.36;99342.80;105331;1265;73879;-74
2022/06/20 07:25:50;;;;;;;8.30;1.90;;;;;;;19.70;50.87;99343.54;105707;1265;60333;-72
2022/06/20 07:28:59;;;;;;;9.50;2.00;;;;;;;19.88;51.19;99353.74;105834;1265;60591;-75
2022/06/20 07:32:03;;;;;;;8.70;1.70;;;;;;;19.84;51.37;99363.20;106298;1264;74402;-72
2022/06/20 07:34:57;;;;;;;9.80;1.90;;;;;;;19.75;49.42;99361.27;105289;1265;66839;-75
2022/06/20 07:38:05;;;;;;;10.10;1.60;;;;;;;19.61;49.34;99354.55;105485;1265;72720;-77
2022/06/20 07:41:16;;;;;;;9.90;1.50;;;;;;;19.51;50.43;99357.85;105638;1264;60893;-75
2022/06/20 07:44:10;;;;;;;9.90;1.80;;;;;;;19.39;51.80;99368.02;105808;1265;60624;-75
2022/06/20 07:47:16;;;;;;;8.20;1.70;;;;;;;19.18;52.04;99367.05;105533;1265;73168;-74
2022/06/20 07:50:18;;;;;;;8.00;1.60;;;;;;;19.07;51.25;99370.92;105719;1265;69437;-75
2022/06/20 07:53:30;;;;;;;11.70;1.80;;;;;;;18.97;51.59;99383.96;105523;1265;73393;-73
2022/06/20 07:56:35;;;;;;;7.70;1.70;;;;;;;18.84;52.03;99397.98;105938;1265;60575;-73
2022/06/20 07:59:44;;;;;;;8.60;1.50;;;;;;;18.86;51.65;99402.25;106050;1267;60458;-72
2022/06/20 08:02:42;;;;;;;9.00;1.60;;;;;;;18.95;51.29;99408.29;105318;1265;75369;-72
2022/06/20 08:05:37;;;;;;;8.90;1.50;;;;;;;19.05;51.88;99407.27;105553;1265;65797;-74
2022/06/20 08:08:34;;;;;;;7.90;1.60;;;;;;;19.06;51.58;99398.70;105499;1265;72861;-76
2022/06/20 08:11:41;;;;;;;9.30;1.80;;;;;;;19.08;52.16;99390.22;105386;1265;60593;-76
2022/06/20 08:14:50;;;;;;;9.90;1.70;;;;;;;19.07;51.83;99390.50;105393;1267;60513;-73
2022/06/20 08:17:37;;;;;;;8.80;1.60;;;;;;;18.91;52.31;99382.59;105294;1265;74397;-74
2022/06/20 08:20:30;;;;;;;8.00;1.70;;;;;;;18.70;53.51;99376.25;105180;1265;68425;-75
2022/06/20 08:23:30;;;;;;;7.90;1.60;;;;;;;18.53;54.62;99387.34;105460;1265;74363;-74
2022/06/20 08:26:28;;;;;;;8.20;1.60;;;;;;;18.26;54.84;99402.66;105486;1265;60566;-74
2022/06/20 08:29:26;;;;;;;9.50;2.40;;;;;;;17.96;55.67;99400.46;105139;1265;62076;-74
2022/06/20 08:32:54;;;;;;;11.00;2.40;;;;;;;17.71;56.05;99401.58;105289;1265;75364;-69
2022/06/20 08:36:01;;;;;;;9.10;1.90;;;;;;;17.42;56.54;99402.20;105547;1265;68352;-69
2022/06/20 08:39:17;;;;;;;7.20;1.50;;;;;;;17.16;57.13;99411.59;105577;1265;74357;-69
2022/06/20 08:42:51;;;;;;;7.50;1.90;;;;;;;16.94;57.71;99437.98;105393;1265;60438;-71
2022/06/20 08:46:32;;;;;;;11.10;1.80;;;;;;;16.78;58.84;99455.33;105712;1265;61042;-69
2022/06/20 08:49:24;;;;;;;8.70;1.80;;;;;;;16.70;59.41;99462.31;105229;1265;73506;-70
2022/06/20 08:52:39;;;;;;;8.50;1.50;;;;;;;16.66;59.81;99472.23;105086;1267;68665;-69
2022/06/20 08:56:29;;;;;;;9.40;1.60;;;;;;;16.50;60.74;99489.05;105360;1265;74303;-71
2022/06/20 09:00:04;;;;;;;7.20;1.60;;;;;;;16.23;61.10;99497.48;104839;1274;60469;-71
2022/06/20 09:03:08;;;;;;;7.50;1.60;;;;;;;16.04;61.75;99508.70;104829;1274;62473;-72
2022/06/20 09:06:07;;;;;;;8.40;1.80;;;;;;;15.92;61.83;99523.23;104698;1274;74620;-69
2022/06/20 09:09:35;;;;;;;8.10;1.80;;;;;;;15.78;62.08;99536.23;104633;1274;68676;-70
2022/06/20 09:12:41;;;;;;;11.10;2.10;;;;;;;15.64;62.46;99547.77;104935;1274;73185;-71
2022/06/20 09:16:05;;;;;;;9.20;2.40;;;;;;;15.55;63.58;99554.19;104808;1276;60556;-69
2022/06/20 09:19:33;;;;;;;9.70;2.20;;;;;;;15.46;64.57;99546.63;104648;1276;60640;-70
2022/06/20 09:22:55;;;;;;;7.90;1.80;;;;;;;15.41;65.86;99529.85;104625;1274;74643;-71
2022/06/20 09:26:16;;;;;;;7.40;1.90;;;;;;;15.36;66.63;99502.36;104673;1274;66665;-71
2022/06/20 09:29:43;;;;;;;24.40;14.40;;;;;;;15.27;68.06;99479.09;104628;1275;71619;-71
2022/06/20 09:33:09;;;;;;;13.90;4.30;;;;;;;15.28;69.35;99456.88;104695;1275;60634;-70
2022/06/20 09:36:41;;;;;;;9.20;2.90;;;;;;;15.30;69.86;99450.92;105246;1265;60559;-68
2022/06/20 09:40:10;;;;;;;9.10;2.50;;;;;;;15.33;70.36;99443.60;105734;1265;74435;-68
2022/06/20 09:43:09;;;;;;;11.60;3.60;;;;;;;15.38;71.45;99420.80;107896;1265;67323;-70
2022/06/20 09:46:33;;;;;;;9.20;2.60;;;;;;;15.44;72.70;99386.52;106624;1265;74428;-67
2022/06/20 09:49:33;;;;;;;9.60;2.20;;;;;;;15.49;73.33;99354.88;105626;1273;60689;-69
2022/06/20 09:53:16;;;;;;;8.10;2.30;;;;;;;15.50;74.66;99330.08;105015;1273;60406;-69
2022/06/20 09:56:34;;;;;;;9.50;2.70;;;;;;;15.54;75.59;99292.09;105072;1274;75034;-70
2022/06/20 09:59:34;;;;;;;12.30;3.30;;;;;;;15.58;75.45;99290.94;104229;1281;68530;-70
2022/06/20 10:02:29;;;;;;;9.70;2.50;;;;;;;15.59;76.97;99295.67;104256;1281;74656;-70
2022/06/20 10:06:03;;;;;;;9.20;2.30;;;;;;;15.59;76.95;99256.39;104279;1281;60918;-70
2022/06/20 10:09:22;;;;;;;10.30;2.30;;;;;;;15.59;77.93;99236.70;103608;1288;60526;-69
2022/06/20 10:12:47;;;;;;;11.20;2.30;;;;;;;15.59;79.03;99280.73;103504;1287;74095;-69
2022/06/20 10:16:11;;;;;;;9.10;2.30;;;;;;;15.50;78.78;99289.85;103691;1287;67145;-68
2022/06/20 10:19:21;;;;;;;11.50;2.70;;;;;;;15.44;78.54;99299.85;103767;1287;73536;-69
2022/06/20 10:22:38;;;;;;;10.10;2.50;;;;;;;15.43;78.72;99289.09;103640;1287;60653;-72
2022/06/20 10:26:06;;;;;;;9.40;2.40;;;;;;;15.47;78.97;99280.70;104093;1282;60455;-69
2022/06/20 10:29:48;;;;;;;11.80;2.90;;;;;;;15.48;78.65;99279.07;104498;1279;73897;-74
2022/06/20 10:33:29;;;;;;;10.90;2.90;;;;;;;15.45;78.18;99320.33;104294;1281;68696;-73
2022/06/20 10:36:37;;;;;;;11.10;2.80;;;;;;;15.35;78.49;99328.34;104533;1274;73511;-73
2022/06/20 10:40:05;;;;;;;10.50;2.90;;;;;;;15.25;77.58;99341.95;104806;1274;60499;-73
2022/06/20 10:43:14;;;;;;;10.40;2.60;;;;;;;15.04;76.97;99354.02;105132;1265;60471;-73
2022/06/20 10:46:42;;;;;;;10.10;2.50;;;;;;;14.90;78.21;99366.96;105417;1265;73540;-73
2022/06/20 10:49:59;;;;;;;10.50;2.70;;;;;;;14.82;79.14;99387.33;105404;1265;66703;-74
2022/06/20 10:53:15;;;;;;;7.40;2.00;;;;;;;14.70;79.19;99378.40;105496;1265;71608;-72
2022/06/20 10:56:51;;;;;;;10.20;2.40;;;;;;;14.59;79.32;99393.52;105359;1265;60363;-72
2022/06/20 11:00:17;;;;;;;10.40;2.40;;;;;;;14.47;80.26;99407.13;105399;1265;62126;-74
2022/06/20 11:03:35;;;;;;;11.40;2.50;;;;;;;14.33;80.02;99401.14;105328;1265;74220;-72
2022/06/20 11:07:02;;;;;;;11.30;2.60;;;;;;;14.34;80.84;99387.45;105245;1265;68694;-73
2022/06/20 11:10:18;;;;;;;11.00;2.40;;;;;;;14.41;80.32;99380.81;105258;1265;73244;-73
2022/06/20 11:13:42;;;;;;;10.20;2.60;;;;;;;14.52;79.53;99374.89;105597;1265;61060;-73
2022/06/20 11:16:43;;;;;;;10.20;2.60;;;;;;;14.65;78.88;99372.15;105238;1265;60866;-73
2022/06/20 11:19:55;;;;;;;9.10;2.20;;;;;;;14.75;78.69;99352.46;105235;1264;75707;-75
2022/06/20 11:22:49;;;;;;;10.30;2.60;;;;;;;14.92;78.90;99328.33;105442;1265;70192;-75
2022/06/20 11:26:40;;;;;;;10.80;2.70;;;;;;;15.03;77.19;99315.38;105390;1264;71410;-75
2022/06/20 11:30:11;;;;;;;10.00;2.50;;;;;;;15.19;77.00;99306.36;105139;1274;60474;-74
2022/06/20 11:33:13;;;;;;;10.70;2.50;;;;;;;15.49;76.61;99314.35;104888;1275;60473;-73
2022/06/20 11:36:12;;;;;;;11.60;2.60;;;;;;;15.79;76.38;99307.45;104656;1274;74679;-75
2022/06/20 11:39:36;;;;;;;11.20;2.50;;;;;;;16.12;75.24;99303.35;104790;1274;69425;-74
2022/06/20 11:43:07;;;;;;;9.90;2.20;;;;;;;16.42;72.15;99292.55;104988;1274;71880;-73
2022/06/20 11:46:30;;;;;;;9.80;2.70;;;;;;;16.73;71.30;99295.72;104739;1276;60515;-73
2022/06/20 11:49:25;;;;;;;10.70;2.30;;;;;;;16.87;69.48;99297.05;104714;1276;62069;-75
2022/06/20 11:52:24;;;;;;;10.10;2.30;;;;;;;16.99;68.48;99288.09;104669;1274;73990;-72
2022/06/20 11:55:18;;;;;;;9.80;2.50;;;;;;;17.25;68.03;99279.29;104694;1274;68092;-75
2022/06/20 11:59:02;;;;;;;8.50;1.90;;;;;;;17.62;67.86;99266.62;104692;1274;73820;-74
2022/06/20 12:02:44;;;;;;;9.40;2.10;;;;;;;18.11;65.66;99257.99;104206;1281;59524;-73
2022/06/20 12:05:36;;;;;;;9.10;2.20;;;;;;;18.20;63.53;99253.66;104462;1280;61851;-73
2022/06/20 12:08:44;;;;;;;9.10;2.10;;;;;;;18.11;63.49;99253.31;105371;1271;75643;-73
2022/06/20 12:11:31;;;;;;;10.80;2.00;;;;;;;18.02;62.72;99249.20;105006;1271;67988;-74
2022/06/20 12:14:20;;;;;;;10.80;2.40;;;;;;;17.97;63.69;99234.23;104955;1271;73746;-69
2022/06/20 12:17:39;;;;;;;10.00;2.20;;;;;;;17.99;64.50;99223.02;105054;1271;60536;-74
2022/06/20 12:23:56;;;;;;;10.80;2.50;;;;;;;18.18;63.83;99221.25;104993;1272;74691;-73
2022/06/20 12:26:43;;;;;;;11.10;2.90;;;;;;;18.33;63.29;99223.66;105468;1272;67391;-74
2022/06/20 12:29:36;;;;;;;8.70;2.10;;;;;;;18.50;62.04;99222.85;105429;1271;72306;-73
2022/06/20 12:32:34;;;;;;;8.00;2.20;;;;;;;18.58;59.68;99237.19;104886;1271;60618;-76
2022/06/20 12:35:52;;;;;;;8.50;2.00;;;;;;;18.46;59.29;99258.04;104962;1271;60632;-74
2022/06/20 12:39:21;;;;;;;10.20;2.10;;;;;;;18.21;59.49;99275.77;105333;1265;74745;-74
2022/06/20 12:42:53;;;;;;;8.80;2.20;;;;;;;18.00;60.89;99268.30;105575;1265;68615;-73
2022/06/20 12:46:10;;;;;;;8.00;2.20;;;;;;;17.91;61.40;99267.05;105415;1265;73343;-74
2022/06/20 12:49:58;;;;;;;9.80;2.10;;;;;;;17.78;61.76;99288.26;105733;1265;60444;-74
2022/06/20 12:53:32;;;;;;;7.30;2.10;;;;;;;17.40;59.26;99310.77;105845;1265;60475;-74
2022/06/20 12:56:43;;;;;;;7.80;1.90;;;;;;;16.97;59.50;99318.34;108168;1265;73104;-74
2022/06/20 12:59:42;;;;;;;8.50;1.70;;;;;;;16.83;60.99;99310.17;107533;1264;66595;-72
2022/06/20 13:02:50;;;;;;;7.20;1.80;;;;;;;16.70;61.48;99320.13;107717;1265;73947;-74
2022/06/20 13:05:49;;;;;;;9.60;1.90;;;;;;;16.51;62.74;99336.20;107231;1262;60573;-74
2022/06/20 13:09:07;;;;;;;7.60;2.30;;;;;;;16.39;63.63;99341.40;105807;1265;61019;-75
2022/06/20 13:12:11;;;;;;;8.60;2.00;;;;;;;16.25;63.69;99338.61;105595;1265;74656;-77
2022/06/20 13:15:33;;;;;;;9.30;2.30;;;;;;;16.15;63.96;99347.10;105480;1265;68012;-75
2022/06/20 13:18:49;;;;;;;7.70;2.00;;;;;;;16.01;64.54;99349.00;105728;1268;72198;-75
2022/06/20 13:22:09;;;;;;;7.80;1.90;;;;;;;15.88;64.37;99348.82;105576;1265;60468;-75
2022/06/20 13:25:26;;;;;;;7.50;2.10;;;;;;;15.80;64.97;99335.45;105554;1265;60420;-78
2022/06/20 13:28:34;;;;;;;10.30;2.40;;;;;;;15.76;65.16;99328.52;105790;1265;75655;-74
2022/06/20 13:31:31;;;;;;;8.90;2.00;;;;;;;15.74;64.44;99321.23;106318;1265;68061;-73
2022/06/20 13:35:05;;;;;;;10.60;2.50;;;;;;;15.71;64.69;99321.39;105682;1265;74278;-75
2022/06/20 13:38:02;;;;;;;9.70;3.00;;;;;;;15.76;65.97;99311.33;105106;1273;60654;-75
2022/06/20 13:41:22;;;;;;;9.90;2.90;;;;;;;15.78;67.36;99296.95;104921;1273;60412;-79
2022/06/20 13:44:47;;;;;;;11.20;2.40;;;;;;;15.88;66.56;99282.55;105049;1274;75149;-74
2022/06/20 13:47:51;;;;;;;9.00;2.30;;;;;;;16.00;66.07;99295.09;105324;1273;66938;-75
2022/06/20 13:50:51;;;;;;;9.70;2.30;;;;;;;16.08;66.41;99290.27;105022;1273;74358;-73
2022/06/20 13:53:51;;;;;;;10.50;2.00;;;;;;;16.17;66.28;99281.73;105064;1273;60735;-75
2022/06/20 13:56:51;;;;;;;9.50;2.10;;;;;;;16.19;65.57;99273.44;105047;1273;60465;-76
2022/06/20 13:59:47;;;;;;;10.70;3.80;;;;;;;16.30;67.18;99263.33;104957;1273;72589;-75
2022/06/20 14:02:41;;;;;;;7.90;2.10;;;;;;;16.40;67.46;99260.39;104964;1272;69590;-73
2022/06/20 14:05:32;;;;;;;9.00;2.50;;;;;;;16.43;65.93;99276.81;105155;1273;71873;-73
2022/06/20 14:08:27;;;;;;;8.50;2.00;;;;;;;16.36;64.99;99300.41;104957;1273;62577;-76
2022/06/20 14:11:50;;;;;;;9.20;2.10;;;;;;;16.28;65.46;99305.31;104846;1273;62021;-76
2022/06/20 14:14:46;;;;;;;9.40;2.00;;;;;;;16.23;65.81;99297.17;105061;1273;75436;-75
2022/06/20 14:17:37;;;;;;;10.60;2.20;;;;;;;16.15;65.86;99296.61;104947;1273;67222;-74
2022/06/20 14:20:33;;;;;;;8.50;2.00;;;;;;;16.16;67.07;99300.42;104937;1273;72758;-73
2022/06/20 14:23:22;;;;;;;10.00;2.60;;;;;;;16.17;67.23;99303.70;104991;1273;60527;-72
2022/06/20 14:26:34;;;;;;;9.60;2.10;;;;;;;16.18;67.36;99301.09;105090;1273;60343;-73